createdAt,value
2018-11-21T00:00:35.603Z,25.77
2018-11-21T00:03:23.315Z,26.77
2018-11-21T00:06:11.148Z,28.53
2018-11-21T00:08:59.010Z,24.23
2018-11-21T00:12:04.716Z,25.27
2018-11-21T00:14:52.575Z,26.27
2018-11-21T00:20:29.212Z,28.13
2018-11-21T00:23:17.078Z,25.77
2018-11-21T00:26:05.173Z,28.27
2018-11-21T00:28:53.033Z,25.20
2018-11-21T00:31:40.871Z,27.63
2018-11-21T00:34:28.750Z,27.20
2018-11-21T00:37:52.138Z,26.87
2018-11-21T00:40:57.766Z,27.23
2018-11-21T00:43:45.604Z,26.90
2018-11-21T00:46:32.206Z,27.90
2018-11-21T00:52:50.476Z,27.75
2018-11-21T00:55:38.341Z,31.20
2018-11-21T01:02:10.174Z,26.48
2018-11-21T01:04:58.044Z,26.47
2018-11-21T01:08:03.786Z,29.32
2018-11-21T01:10:51.659Z,26.33
2018-11-21T01:17:23.482Z,27.17
2018-11-21T01:20:11.266Z,29.00
2018-11-21T01:22:59.105Z,25.55
2018-11-21T01:25:46.969Z,28.97
2018-11-21T01:28:34.803Z,28.52
2018-11-21T01:31:21.801Z,29.07
2018-11-21T01:36:58.450Z,26.37
2018-11-21T01:39:46.280Z,30.10
2018-11-21T01:42:34.150Z,24.33
2018-11-21T01:45:23.025Z,26.40
2018-11-21T01:48:10.940Z,39.13
2018-11-21T01:50:58.831Z,29.83
2018-11-21T01:53:46.676Z,29.07
2018-11-21T01:56:28.043Z,29.60
2018-11-21T01:59:08.394Z,34.70
2018-11-21T02:01:49.385Z,25.00
2018-11-21T02:07:48.668Z,26.57
2018-11-21T02:10:29.156Z,27.37
2018-11-21T02:13:10.253Z,28.85
2018-11-21T02:15:51.408Z,28.42
2018-11-21T02:21:51.215Z,29.80
2018-11-21T02:27:51.037Z,28.12
2018-11-21T02:36:54.594Z,31.85
2018-11-21T02:39:35.695Z,26.85
2018-11-21T02:42:16.605Z,28.30
2018-11-21T02:44:57.857Z,28.83
2018-11-21T02:50:43.571Z,26.95
2018-11-21T02:56:33.495Z,29.87
2018-11-21T02:59:14.744Z,31.45
2018-11-21T03:05:14.880Z,29.85
2018-11-21T03:07:59.693Z,29.60
2018-11-21T03:13:59.452Z,28.60
2018-11-21T03:16:38.362Z,28.40
2018-11-21T03:19:26.313Z,33.28
2018-11-21T03:25:21.558Z,30.20
2018-11-21T03:28:09.427Z,28.35
2018-11-21T03:30:57.293Z,28.70
2018-11-21T03:33:45.130Z,31.97
2018-11-21T03:36:32.974Z,28.27
2018-11-21T03:39:22.124Z,31.75
2018-11-21T03:42:09.962Z,35.52
2018-11-21T03:44:58.029Z,32.60
2018-11-21T03:47:45.891Z,34.92
2018-11-21T03:50:33.762Z,30.20
2018-11-21T03:53:21.673Z,29.98
2018-11-21T03:56:09.515Z,32.33
2018-11-21T03:59:15.329Z,33.88
2018-11-21T04:02:03.166Z,29.70
2018-11-21T04:04:51.044Z,29.37
2018-11-21T04:10:46.175Z,32.65
2018-11-21T04:17:02.949Z,32.42
2018-11-21T04:19:50.814Z,29.52
2018-11-21T04:22:38.993Z,31.52
2018-11-21T04:25:26.855Z,30.55
2018-11-21T04:28:14.730Z,31.05
2018-11-21T04:31:02.571Z,31.90
2018-11-21T04:34:09.107Z,30.55
2018-11-21T04:36:56.985Z,30.95
2018-11-21T04:39:44.857Z,31.17
2018-11-21T04:42:50.850Z,30.35
2018-11-21T04:45:38.722Z,29.07
2018-11-21T04:51:20.161Z,35.30
2018-11-21T04:54:08.021Z,31.70
2018-11-21T04:56:55.868Z,33.88
2018-11-21T04:59:43.740Z,32.63
2018-11-21T05:05:20.380Z,31.45
2018-11-21T05:08:08.217Z,31.50
2018-11-21T05:10:56.083Z,33.33
2018-11-21T05:13:43.950Z,30.25
2018-11-21T05:16:31.801Z,28.30
2018-11-21T05:19:19.685Z,33.30
2018-11-21T05:22:07.522Z,28.98
2018-11-21T05:24:55.088Z,30.68
2018-11-21T05:27:42.968Z,30.82
2018-11-21T05:30:30.937Z,31.37
2018-11-21T05:33:18.782Z,31.33
2018-11-21T05:36:06.638Z,28.23
2018-11-21T05:38:54.518Z,31.37
2018-11-21T05:41:42.350Z,34.92
2018-11-21T05:48:00.767Z,32.35
2018-11-21T05:50:48.650Z,31.48
2018-11-21T05:53:36.510Z,32.73
2018-11-21T05:56:24.375Z,31.87
2018-11-21T05:59:12.337Z,30.88
2018-11-21T06:02:00.191Z,32.38
2018-11-21T06:04:48.071Z,31.42
2018-11-21T06:07:35.900Z,32.33
2018-11-21T06:10:23.082Z,31.73
2018-11-21T06:13:10.920Z,34.45
2018-11-21T06:15:58.803Z,34.43
2018-11-21T06:18:46.768Z,32.60
2018-11-21T06:21:34.629Z,35.58
2018-11-21T06:24:22.502Z,35.08
2018-11-21T06:27:11.193Z,31.25
2018-11-21T06:29:58.222Z,34.23
2018-11-21T06:32:46.101Z,33.75
2018-11-21T06:38:41.520Z,49.20
2018-11-21T06:41:29.397Z,82.53
2018-11-21T06:44:17.273Z,39.85
2018-11-21T06:47:05.210Z,39.85
2018-11-21T06:49:53.101Z,35.13
2018-11-21T06:52:40.946Z,33.25
2018-11-21T06:58:41.507Z,33.25
2018-11-21T07:01:29.047Z,34.40
2018-11-21T07:04:37.109Z,31.95
2018-11-21T07:07:48.619Z,31.95
2018-11-21T07:10:44.508Z,32.80
2018-11-21T07:16:23.470Z,31.40
2018-11-21T07:22:57.077Z,33.23
2018-11-21T07:25:44.945Z,32.67
2018-11-21T07:28:32.833Z,29.25
2018-11-21T07:31:38.671Z,30.15
2018-11-21T07:38:10.367Z,34.20
2018-11-21T07:40:58.233Z,32.83
2018-11-21T07:43:46.073Z,33.40
2018-11-21T07:46:33.948Z,38.63
2018-11-21T07:49:21.868Z,33.70
2018-11-21T07:52:12.642Z,28.45
2018-11-21T07:55:00.490Z,31.65
2018-11-21T07:57:56.164Z,30.88
2018-11-21T08:01:04.826Z,30.72
2018-11-21T08:03:52.742Z,29.52
2018-11-21T08:06:59.845Z,29.12
2018-11-21T08:10:06.793Z,28.98
2018-11-21T08:16:45.811Z,30.23
2018-11-21T08:19:52.914Z,28.23
2018-11-21T08:22:59.885Z,29.37
2018-11-21T08:26:06.857Z,32.93
2018-11-21T08:28:54.712Z,27.65
2018-11-21T08:31:42.573Z,30.70
2018-11-21T08:34:48.460Z,28.73
2018-11-21T08:37:36.369Z,28.35
2018-11-21T08:40:24.221Z,29.90
2018-11-21T08:43:12.115Z,32.13
2018-11-21T08:45:59.949Z,26.37
2018-11-21T08:48:47.813Z,26.42
2018-11-21T08:51:35.700Z,25.10
2018-11-21T08:54:23.581Z,25.93
2018-11-21T08:57:11.419Z,30.32
2018-11-21T08:59:59.274Z,26.73
2018-11-21T09:02:47.114Z,25.70
2018-11-21T09:05:34.972Z,25.07
2018-11-21T09:08:22.833Z,26.30
2018-11-21T09:11:10.671Z,25.33
2018-11-21T09:13:58.698Z,28.47
2018-11-21T09:16:46.535Z,26.07
2018-11-21T09:26:34.751Z,28.77
2018-11-21T09:29:21.391Z,26.23
2018-11-21T09:32:46.065Z,26.70
2018-11-21T09:35:33.951Z,25.80
2018-11-21T09:42:06.092Z,28.60
2018-11-21T09:44:53.928Z,27.93
2018-11-21T09:47:41.889Z,25.65
2018-11-21T09:53:24.160Z,29.23
2018-11-21T09:56:12.035Z,27.00
2018-11-21T09:59:00.269Z,30.00
2018-11-21T10:02:07.765Z,28.40
2018-11-21T10:04:55.797Z,30.13
2018-11-21T10:07:56.873Z,25.67
2018-11-21T10:10:44.744Z,28.40
2018-11-21T10:16:21.414Z,24.90
2018-11-21T10:19:27.183Z,28.05
2018-11-21T10:22:14.869Z,25.10
2018-11-21T10:25:38.624Z,25.57
2018-11-21T10:29:03.464Z,26.40
2018-11-21T10:31:51.329Z,26.23
2018-11-21T10:38:11.641Z,26.03
2018-11-21T10:40:59.547Z,24.03
2018-11-21T10:43:47.414Z,24.80
2018-11-21T10:46:37.188Z,25.23
2018-11-21T10:52:32.432Z,26.90
2018-11-21T10:55:20.318Z,27.00
2018-11-21T10:58:07.573Z,25.60
2018-11-21T11:04:06.541Z,23.83
2018-11-21T11:07:13.503Z,26.40
2018-11-21T11:14:05.201Z,27.17
2018-11-21T11:16:52.262Z,27.10
2018-11-21T11:26:02.073Z,24.15
2018-11-21T11:28:50.425Z,28.03
2018-11-21T11:35:26.533Z,28.38
2018-11-21T11:38:14.772Z,30.20
2018-11-21T11:41:28.441Z,25.80
2018-11-21T11:47:46.312Z,26.62
2018-11-21T11:54:25.377Z,25.08
2018-11-21T11:57:34.359Z,24.73
2018-11-21T12:03:30.109Z,24.83
2018-11-21T12:06:37.072Z,25.47
2018-11-21T12:09:44.031Z,23.53
2018-11-21T12:12:32.876Z,26.60
2018-11-21T12:15:38.844Z,24.60
2018-11-21T12:18:25.685Z,26.23
2018-11-21T12:21:32.637Z,25.43
2018-11-21T12:27:50.574Z,27.27
2018-11-21T12:30:57.546Z,28.52
2018-11-21T12:34:07.070Z,26.07
2018-11-21T12:46:30.877Z,26.70
2018-11-21T12:49:37.857Z,31.33
2018-11-21T12:52:31.115Z,26.83
2018-11-21T12:55:38.086Z,28.90
2018-11-21T12:58:25.611Z,26.27
2018-11-21T13:04:21.353Z,27.87
2018-11-21T13:07:28.355Z,32.50
2018-11-21T13:13:49.497Z,26.27
2018-11-21T13:20:23.549Z,22.53
2018-11-21T13:27:13.286Z,28.80
2018-11-21T13:30:20.218Z,25.00
2018-11-21T13:33:27.135Z,24.30
2018-11-21T13:36:35.970Z,25.67
2018-11-21T13:39:42.920Z,25.97
2018-11-21T13:46:30.004Z,24.65
2018-11-21T13:49:55.261Z,24.37
2018-11-21T13:53:18.646Z,24.47
2018-11-21T13:56:06.502Z,25.67
2018-11-21T14:02:25.001Z,24.07
2018-11-21T14:05:12.864Z,24.80
2018-11-21T14:08:00.706Z,23.97
2018-11-21T14:10:48.093Z,24.17
2018-11-21T14:20:48.139Z,25.00
2018-11-21T14:23:35.986Z,26.87
2018-11-21T14:26:41.641Z,25.00
2018-11-21T14:29:29.466Z,25.33
2018-11-21T14:32:17.329Z,24.40
2018-11-21T14:38:51.529Z,30.27
2018-11-21T14:41:41.454Z,22.93
2018-11-21T14:44:45.900Z,23.77
2018-11-21T14:47:33.758Z,21.40
2018-11-21T14:50:22.590Z,23.20
2018-11-21T15:00:22.863Z,25.27
2018-11-21T15:03:09.807Z,26.93
2018-11-21T15:05:57.651Z,26.03
2018-11-21T15:08:45.651Z,25.57
2018-11-21T15:11:32.995Z,22.67
2018-11-21T15:14:20.815Z,24.90
2018-11-21T15:17:08.670Z,26.83
2018-11-21T15:19:56.562Z,25.27
2018-11-21T15:23:02.279Z,23.73
2018-11-21T15:25:50.150Z,25.80
2018-11-21T15:28:37.968Z,22.07
2018-11-21T15:31:25.825Z,23.43
2018-11-21T15:34:13.682Z,25.03
2018-11-21T15:37:01.548Z,21.93
2018-11-21T15:40:07.439Z,21.40
2018-11-21T15:42:55.292Z,23.20
2018-11-21T15:45:43.114Z,22.23
2018-11-21T15:48:30.960Z,23.20
2018-11-21T15:51:18.786Z,24.57
2018-11-21T15:54:05.501Z,25.30
2018-11-21T15:56:53.352Z,24.40
2018-11-21T15:59:41.189Z,28.83
2018-11-21T16:02:29.041Z,24.60
2018-11-21T16:08:05.885Z,24.10
2018-11-21T16:10:53.704Z,22.00
2018-11-21T16:13:41.563Z,24.20
2018-11-21T16:16:29.376Z,24.47
2018-11-21T16:19:17.222Z,22.43
2018-11-21T16:22:05.263Z,24.63
2018-11-21T16:24:53.113Z,23.42
2018-11-21T16:27:41.171Z,20.57
2018-11-21T16:30:28.978Z,20.80
2018-11-21T16:33:34.565Z,18.93
2018-11-21T16:36:27.091Z,22.03
2018-11-21T16:39:11.186Z,24.17
2018-11-21T16:41:59.019Z,23.53
2018-11-21T16:44:46.939Z,25.33
2018-11-21T16:47:34.753Z,23.47
2018-11-21T16:50:22.635Z,26.50
2018-11-21T16:53:10.521Z,24.53
2018-11-21T16:55:58.962Z,23.53
2018-11-21T16:58:46.813Z,24.37
2018-11-21T17:01:37.090Z,38.70
2018-11-21T17:04:24.935Z,27.07
2018-11-21T17:07:48.567Z,28.53
2018-11-21T17:10:54.511Z,27.27
2018-11-21T17:14:00.307Z,27.63
2018-11-21T17:17:23.710Z,29.47
2018-11-21T17:20:13.845Z,30.93
2018-11-21T17:25:50.465Z,32.03
2018-11-21T17:28:38.301Z,27.47
2018-11-21T17:31:44.144Z,26.67
2018-11-21T17:34:49.991Z,26.20
2018-11-21T17:37:37.995Z,25.63
2018-11-21T17:40:30.891Z,28.57
2018-11-21T17:43:36.742Z,25.27
2018-11-21T17:46:24.609Z,24.60
2018-11-21T17:49:30.331Z,25.53
2018-11-21T17:55:07.863Z,26.87
2018-11-21T17:57:55.668Z,24.13
2018-11-21T18:00:43.530Z,24.95
2018-11-21T18:03:31.380Z,24.57
2018-11-21T18:06:19.661Z,24.37
2018-11-21T18:09:08.988Z,23.93
2018-11-21T18:11:56.888Z,26.10
2018-11-21T18:14:44.431Z,29.90
2018-11-21T18:17:32.297Z,26.25
2018-11-21T18:20:20.835Z,23.83
2018-11-21T18:23:08.679Z,22.13
2018-11-21T18:25:56.535Z,25.57
2018-11-21T18:31:32.484Z,26.77
2018-11-21T18:34:20.301Z,23.70
2018-11-21T18:37:08.169Z,22.93
2018-11-21T18:39:55.467Z,24.27
2018-11-21T18:42:43.289Z,23.43
2018-11-21T18:45:30.614Z,25.00
2018-11-21T18:48:18.428Z,22.53
2018-11-21T18:51:06.299Z,24.03
2018-11-21T18:57:20.577Z,22.48
2018-11-21T19:00:07.737Z,21.33
2018-11-21T19:02:55.590Z,22.27
2018-11-21T19:05:43.286Z,22.07
2018-11-21T19:08:31.116Z,22.03
2018-11-21T19:11:19.015Z,23.00
2018-11-21T19:14:07.324Z,22.03
2018-11-21T19:16:55.122Z,22.33
2018-11-21T19:19:42.969Z,22.77
2018-11-21T19:22:30.863Z,22.87
2018-11-21T19:25:18.656Z,21.67
2018-11-21T19:28:06.523Z,23.30
2018-11-21T19:30:54.362Z,23.03
2018-11-21T19:37:26.381Z,22.80
2018-11-21T19:43:22.129Z,22.15
2018-11-21T19:49:37.530Z,25.30
2018-11-21T19:52:25.373Z,25.67
2018-11-21T19:58:19.942Z,24.03
2018-11-21T20:01:07.632Z,22.83
2018-11-21T20:03:55.438Z,23.53
2018-11-21T20:06:43.301Z,25.60
2018-11-21T20:09:48.934Z,24.83
2018-11-21T20:15:30.348Z,25.05
2018-11-21T20:18:18.217Z,22.00
2018-11-21T20:21:23.937Z,23.87
2018-11-21T20:24:11.765Z,24.10
2018-11-21T20:26:59.703Z,22.33
